Time;durP1;ratioP1;P1;durP2;ratioP2;P2;SDS_P1;SDS_P2;PMS_P1;PMS_P2;Temp;Humidity;BMP_temperature;BMP_pressure;BME280_temperature;BME280_humidity;BME280_pressure;Samples;Min_cycle;Max_cycle;Signal;HPM_P1;HPM_P2
2022/03/12 00:01:24;;;;;;;9.25;6.45;;;8.70;44.30;;;;;;5051860;28;20123;-54
2022/03/12 00:03:50;;;;;;;11.27;6.80;;;8.70;44.50;;;;;;5052004;28;20033;-53
2022/03/12 00:06:17;;;;;;;11.65;6.55;;;8.70;44.10;;;;;;5051239;28;20032;-50
2022/03/12 00:08:44;;;;;;;12.73;6.88;;;8.80;44.40;;;;;;5051966;28;20045;-51
2022/03/12 00:11:25;;;;;;;13.30;6.78;;;8.70;44.40;;;;;;5052069;28;20093;-50
2022/03/12 00:13:52;;;;;;;10.07;6.20;;;8.70;44.00;;;;;;5051959;28;20033;-50
2022/03/12 00:16:23;;;;;;;11.05;6.32;;;8.70;44.00;;;;;;5050346;28;20083;-54
2022/03/12 00:18:52;;;;;;;12.98;6.35;;;8.70;44.10;;;;;;5049606;28;20090;-50
2022/03/12 00:21:19;;;;;;;11.88;6.35;;;8.70;43.90;;;;;;5051963;28;20041;-53
2022/03/12 00:23:45;;;;;;;10.07;6.47;;;8.70;44.10;;;;;;5051753;28;20044;-54
2022/03/12 00:26:14;;;;;;;13.10;6.35;;;8.60;44.30;;;;;;5050747;28;20033;-54
2022/03/12 00:28:41;;;;;;;11.32;6.30;;;8.70;44.20;;;;;;5051674;28;20493;-50
2022/03/12 00:31:07;;;;;;;15.40;6.78;;;8.60;44.90;;;;;;5051333;28;20048;-52
2022/03/12 00:33:33;;;;;;;10.88;6.30;;;8.60;44.90;;;;;;5051680;28;20036;-51
2022/03/12 00:35:59;;;;;;;13.75;6.30;;;8.50;45.30;;;;;;5051460;28;20049;-52
2022/03/12 00:38:24;;;;;;;14.23;6.50;;;8.50;45.10;;;;;;5051231;28;20076;-50
2022/03/12 00:40:50;;;;;;;12.27;6.93;;;8.50;45.00;;;;;;5051453;28;20065;-51
2022/03/12 00:43:17;;;;;;;16.80;7.25;;;8.50;45.30;;;;;;5050281;28;20056;-49
2022/03/12 00:45:43;;;;;;;13.18;6.30;;;8.40;45.50;;;;;;5051011;28;20063;-50
2022/03/12 00:48:09;;;;;;;16.33;7.00;;;8.30;45.40;;;;;;5051164;28;20036;-49
2022/03/12 00:50:34;;;;;;;13.18;7.05;;;8.40;45.50;;;;;;5050984;28;20047;-50
2022/03/12 00:53:01;;;;;;;11.57;6.38;;;8.30;45.60;;;;;;5051097;28;20120;-53
2022/03/12 00:55:27;;;;;;;13.63;7.20;;;8.30;45.80;;;;;;5050772;28;20075;-52
2022/03/12 00:57:54;;;;;;;16.90;6.88;;;8.30;45.90;;;;;;5050610;28;20044;-50
2022/03/12 01:00:22;;;;;;;15.35;6.78;;;8.30;46.40;;;;;;5050819;28;20077;-52
2022/03/12 01:02:48;;;;;;;16.77;7.00;;;8.30;45.40;;;;;;5051448;28;20084;-50
2022/03/12 01:05:17;;;;;;;12.52;6.57;;;8.30;46.20;;;;;;5051154;28;20322;-50
2022/03/12 01:07:43;;;;;;;12.65;6.50;;;8.30;45.60;;;;;;5050498;28;20037;-51
2022/03/12 01:10:09;;;;;;;12.20;7.03;;;8.30;45.40;;;;;;5049861;28;20562;-49
2022/03/12 01:12:34;;;;;;;10.32;6.63;;;8.30;45.30;;;;;;5051245;28;20040;-52
2022/03/12 01:15:01;;;;;;;11.10;7.10;;;8.30;45.10;;;;;;5050499;28;20393;-52
2022/03/12 01:17:26;;;;;;;11.50;6.90;;;8.30;45.00;;;;;;5051158;28;20106;-51
2022/03/12 01:19:52;;;;;;;10.57;6.57;;;8.30;45.30;;;;;;5051274;28;20080;-49
2022/03/12 01:22:21;;;;;;;11.27;6.35;;;8.20;45.20;;;;;;5043760;28;20037;-50
2022/03/12 01:24:47;;;;;;;11.00;6.60;;;8.30;45.30;;;;;;5049193;28;20033;-53
2022/03/12 01:27:15;;;;;;;15.45;6.60;;;8.30;44.50;;;;;;5050659;28;20035;-49
2022/03/12 01:29:45;;;;;;;10.90;6.55;;;8.40;44.70;;;;;;5050756;28;20041;-52
2022/03/12 01:32:11;;;;;;;12.80;6.68;;;8.30;45.30;;;;;;5051176;28;20472;-54
2022/03/12 01:34:37;;;;;;;12.02;6.90;;;8.40;44.70;;;;;;5048585;28;20127;-53
2022/03/12 01:37:03;;;;;;;13.88;6.15;;;8.40;44.40;;;;;;5050571;28;20499;-49
2022/03/12 01:39:29;;;;;;;13.90;6.28;;;8.40;44.80;;;;;;5049660;28;20068;-50
2022/03/12 01:41:55;;;;;;;11.88;6.30;;;8.30;45.10;;;;;;5050800;28;20069;-51
2022/03/12 01:44:21;;;;;;;12.15;7.28;;;8.30;45.10;;;;;;5050951;28;20037;-54
2022/03/12 01:46:48;;;;;;;12.57;6.50;;;8.30;45.10;;;;;;5050609;28;20025;-52
2022/03/12 01:49:18;;;;;;;11.25;6.60;;;8.30;45.40;;;;;;5049823;28;20095;-49
2022/03/12 01:51:46;;;;;;;13.82;6.32;;;8.20;45.30;;;;;;5050855;28;20068;-51
2022/03/12 01:54:16;;;;;;;10.13;6.63;;;8.20;45.90;;;;;;5050837;28;20124;-51
2022/03/12 01:56:41;;;;;;;11.45;7.10;;;8.30;45.30;;;;;;5052151;28;20063;-52
2022/03/12 01:59:07;;;;;;;12.70;6.60;;;8.30;44.90;;;;;;5054300;28;20773;-50
2022/03/12 02:01:33;;;;;;;13.98;7.35;;;8.30;45.30;;;;;;5052898;28;20053;-51
2022/03/12 02:04:00;;;;;;;12.05;7.00;;;8.40;45.20;;;;;;5036768;28;20641;-49
2022/03/12 02:06:27;;;;;;;11.13;6.80;;;8.30;44.90;;;;;;5036104;28;20048;-50
2022/03/12 02:08:57;;;;;;;12.38;6.97;;;8.40;45.00;;;;;;5053108;28;20051;-49
2022/03/12 02:11:27;;;;;;;12.13;6.68;;;8.30;45.30;;;;;;5054153;28;20041;-51
2022/03/12 02:13:59;;;;;;;12.10;7.22;;;8.30;45.50;;;;;;5035715;28;20037;-49
2022/03/12 02:16:24;;;;;;;12.85;6.70;;;8.30;45.20;;;;;;5053585;28;20036;-50
2022/03/12 02:18:50;;;;;;;11.55;6.80;;;8.30;45.40;;;;;;5054399;28;20044;-51
2022/03/12 02:21:34;;;;;;;12.73;6.82;;;8.20;45.30;;;;;;5053982;28;20571;-50
2022/03/12 02:24:02;;;;;;;11.25;6.82;;;8.30;45.30;;;;;;5053600;28;20102;-49
2022/03/12 02:26:28;;;;;;;14.52;7.47;;;8.30;45.60;;;;;;5053484;28;20071;-49
2022/03/12 02:28:53;;;;;;;14.95;6.97;;;8.20;45.70;;;;;;5054318;28;20072;-49
2022/03/12 02:31:26;;;;;;;13.32;7.05;;;8.30;45.60;;;;;;5053824;28;20239;-49
2022/03/12 02:33:52;;;;;;;12.60;7.40;;;8.20;45.70;;;;;;5035900;28;20493;-52
2022/03/12 02:36:21;;;;;;;12.70;7.55;;;8.20;45.90;;;;;;5053178;28;20045;-49
2022/03/12 02:38:48;;;;;;;13.50;6.60;;;8.20;45.50;;;;;;5053580;28;20412;-51
2022/03/12 02:41:14;;;;;;;9.93;6.35;;;8.20;45.70;;;;;;5053578;28;20032;-49
2022/03/12 02:43:46;;;;;;;11.40;7.10;;;8.20;45.60;;;;;;5053856;28;20098;-50
2022/03/12 02:46:15;;;;;;;9.70;6.72;;;8.30;45.60;;;;;;5053460;28;20033;-50
2022/03/12 02:48:48;;;;;;;14.10;7.85;;;8.20;45.70;;;;;;5053502;28;20120;-49
2022/03/12 02:51:15;;;;;;;18.17;6.90;;;8.20;45.90;;;;;;5038228;28;20025;-50
2022/03/12 02:53:41;;;;;;;10.95;6.97;;;8.20;46.10;;;;;;5051980;28;20106;-52
2022/03/12 02:56:07;;;;;;;12.35;7.10;;;8.10;46.50;;;;;;5053000;28;20037;-50
2022/03/12 02:58:33;;;;;;;12.80;7.13;;;8.20;46.20;;;;;;5053782;28;20651;-49
2022/03/12 03:00:59;;;;;;;15.25;8.10;;;8.10;46.30;;;;;;5053600;28;20045;-49
2022/03/12 03:03:25;;;;;;;12.90;7.10;;;8.20;46.20;;;;;;5019603;28;20051;-49
2022/03/12 03:05:51;;;;;;;12.57;7.20;;;8.10;46.60;;;;;;5053205;28;20393;-53
2022/03/12 03:08:19;;;;;;;13.07;7.95;;;8.10;46.60;;;;;;5052236;28;20029;-49
2022/03/12 03:10:50;;;;;;;16.15;7.57;;;8.00;47.00;;;;;;5053667;28;20041;-50
2022/03/12 03:13:21;;;;;;;12.82;7.28;;;8.00;47.30;;;;;;5053495;28;20052;-49
2022/03/12 03:15:55;;;;;;;11.73;7.07;;;7.90;47.50;;;;;;5053005;28;20095;-50
2022/03/12 03:18:23;;;;;;;11.48;7.22;;;8.00;47.40;;;;;;5053038;28;20048;-50
2022/03/12 03:20:49;;;;;;;13.95;8.13;;;8.10;47.10;;;;;;5052748;28;20048;-50
2022/03/12 03:23:16;;;;;;;14.13;7.60;;;8.00;47.40;;;;;;5052582;28;20052;-49
2022/03/12 03:25:41;;;;;;;14.52;7.63;;;8.00;47.60;;;;;;5052600;28;20048;-50
2022/03/12 03:28:08;;;;;;;13.48;7.57;;;7.90;47.50;;;;;;5052502;28;20033;-49
2022/03/12 03:30:36;;;;;;;11.02;6.95;;;8.00;47.90;;;;;;5053383;28;20025;-49
2022/03/12 03:33:05;;;;;;;14.55;7.35;;;7.90;47.70;;;;;;5053511;28;20417;-53
2022/03/12 03:35:31;;;;;;;14.55;7.43;;;7.90;48.30;;;;;;5051854;28;20077;-49
2022/03/12 03:37:57;;;;;;;12.20;7.38;;;7.80;48.30;;;;;;5051243;28;20129;-49
2022/03/12 03:40:23;;;;;;;11.35;7.15;;;7.80;48.30;;;;;;5051514;28;20528;-50
2022/03/12 03:42:49;;;;;;;15.90;7.13;;;7.80;48.30;;;;;;5045445;28;20112;-53
2022/03/12 03:45:24;;;;;;;12.18;7.22;;;7.80;48.30;;;;;;5052341;28;20393;-53
2022/03/12 03:47:50;;;;;;;14.20;7.45;;;7.90;48.50;;;;;;5050926;28;20401;-50
2022/03/12 03:50:18;;;;;;;14.23;7.35;;;7.80;48.20;;;;;;5052696;28;20040;-49
2022/03/12 03:52:44;;;;;;;12.82;7.20;;;7.80;48.40;;;;;;5050767;28;20404;-52
2022/03/12 03:55:10;;;;;;;14.65;7.75;;;7.80;48.70;;;;;;5051928;28;20033;-50
2022/03/12 03:57:36;;;;;;;14.20;8.10;;;7.80;48.60;;;;;;5051803;28;20378;-52
2022/03/12 04:00:03;;;;;;;13.55;7.22;;;7.80;49.10;;;;;;5052171;28;20048;-52
2022/03/12 04:02:29;;;;;;;13.52;8.05;;;7.80;49.10;;;;;;5052008;28;20045;-49
2022/03/12 04:04:54;;;;;;;13.50;7.32;;;7.80;48.90;;;;;;5034439;28;20120;-50
2022/03/12 04:07:20;;;;;;;15.98;7.88;;;7.70;49.40;;;;;;5051435;28;20119;-50
2022/03/12 04:09:45;;;;;;;13.38;7.60;;;7.80;49.30;;;;;;5052285;28;20039;-52
2022/03/12 04:12:11;;;;;;;13.60;7.65;;;7.70;49.40;;;;;;5051672;28;20044;-53
2022/03/12 04:14:36;;;;;;;19.48;8.18;;;7.70;49.60;;;;;;5052067;28;20433;-49
2022/03/12 04:17:04;;;;;;;12.52;7.53;;;7.70;49.30;;;;;;5051523;28;20489;-49
2022/03/12 04:19:34;;;;;;;15.13;7.38;;;7.70;49.60;;;;;;5050034;28;20064;-54
2022/03/12 04:22:00;;;;;;;13.13;7.30;;;7.70;49.70;;;;;;5033627;28;20120;-53
2022/03/12 04:24:26;;;;;;;15.15;7.90;;;7.70;49.90;;;;;;5051773;28;20052;-52
2022/03/12 04:27:38;;;;;;;12.50;7.60;;;7.70;49.80;;;;;;5058569;28;20041;-51
2022/03/12 04:30:42;;;;;;;16.48;7.72;;;7.70;49.90;;;;;;5039818;28;20441;-54
2022/03/12 04:33:10;;;;;;;15.88;7.15;;;7.70;49.90;;;;;;5051562;28;20045;-54
2022/03/12 04:35:36;;;;;;;14.93;8.02;;;7.60;50.10;;;;;;5051446;28;20496;-56
2022/03/12 04:38:03;;;;;;;11.20;7.35;;;7.70;50.10;;;;;;5051674;28;20048;-56
2022/03/12 04:40:29;;;;;;;12.77;7.75;;;7.70;50.30;;;;;;5052001;28;20486;-56
2022/03/12 04:42:55;;;;;;;17.38;7.88;;;7.60;50.50;;;;;;5051644;28;20048;-56
2022/03/12 04:45:24;;;;;;;12.88;8.13;;;7.60;50.80;;;;;;5051141;28;20025;-55
2022/03/12 04:47:50;;;;;;;14.35;7.85;;;7.60;50.90;;;;;;5051281;28;20529;-57
2022/03/12 04:50:18;;;;;;;13.05;8.05;;;7.60;51.00;;;;;;5051198;28;20033;-56
2022/03/12 04:56:15;;;;;;;13.65;7.75;;;7.60;51.20;;;;;;5069225;22;20131;-51
2022/03/12 04:58:41;;;;;;;14.10;8.18;;;7.60;51.70;;;;;;5091144;28;20123;-51
2022/03/12 05:01:08;;;;;;;15.55;7.75;;;7.60;51.50;;;;;;5073375;28;20431;-52
2022/03/12 05:03:34;;;;;;;14.25;7.82;;;7.70;52.10;;;;;;5089044;28;20408;-53
2022/03/12 05:06:03;;;;;;;14.10;7.90;;;7.70;51.30;;;;;;5074019;28;20051;-51
2022/03/12 05:08:33;;;;;;;13.07;8.02;;;7.60;51.60;;;;;;5061196;28;20075;-54
2022/03/12 05:10:58;;;;;;;12.45;7.75;;;7.70;51.70;;;;;;5071261;28;20066;-53
2022/03/12 05:13:25;;;;;;;14.30;7.88;;;7.60;52.20;;;;;;5071220;28;20044;-53
2022/03/12 05:15:55;;;;;;;13.13;8.30;;;7.60;54.00;;;;;;5071001;28;20402;-51
2022/03/12 05:18:23;;;;;;;13.98;7.63;;;7.60;54.70;;;;;;5071417;28;20123;-52
2022/03/12 05:20:50;;;;;;;14.65;8.35;;;7.60;56.30;;;;;;5070444;28;20412;-51
2022/03/12 05:23:17;;;;;;;14.85;8.13;;;7.50;57.90;;;;;;5066285;28;20039;-53
2022/03/12 05:25:44;;;;;;;14.85;8.50;;;7.50;58.10;;;;;;5061811;28;20401;-53
2022/03/12 05:28:15;;;;;;;16.13;9.07;;;7.40;58.70;;;;;;5064781;28;20106;-55
2022/03/12 05:30:44;;;;;;;15.63;8.35;;;7.30;59.40;;;;;;5068348;28;20029;-52
2022/03/12 05:33:10;;;;;;;13.65;7.80;;;7.30;59.10;;;;;;5065289;28;20028;-52
2022/03/12 05:35:39;;;;;;;12.98;8.18;;;7.30;60.20;;;;;;5070745;28;20520;-55
2022/03/12 05:38:06;;;;;;;19.52;8.65;;;7.30;59.30;;;;;;5067169;28;20036;-50
2022/03/12 05:40:38;;;;;;;19.08;8.90;;;7.30;58.60;;;;;;5074752;28;20044;-54
2022/03/12 05:43:09;;;;;;;14.73;8.63;;;7.30;58.10;;;;;;5073033;28;20039;-52
2022/03/12 05:45:35;;;;;;;18.50;8.02;;;7.30;57.70;;;;;;5064857;28;20048;-51
2022/03/12 05:48:00;;;;;;;15.70;9.30;;;7.30;57.70;;;;;;5073999;28;20033;-53
2022/03/12 05:50:26;;;;;;;14.27;8.55;;;7.30;56.80;;;;;;5074496;28;20040;-52
2022/03/12 05:52:52;;;;;;;13.00;8.32;;;7.30;56.70;;;;;;5072392;28;20127;-53
2022/03/12 05:55:20;;;;;;;14.25;8.63;;;7.30;56.90;;;;;;5073992;28;20123;-52
2022/03/12 05:57:46;;;;;;;15.60;8.50;;;7.40;57.20;;;;;;5074162;28;20051;-52
2022/03/12 06:00:13;;;;;;;16.33;8.57;;;7.40;56.50;;;;;;5074049;28;20041;-53
2022/03/12 06:02:51;;;;;;;15.15;8.73;;;7.40;56.30;;;;;;5073990;28;20381;-51
2022/03/12 06:05:18;;;;;;;13.00;7.82;;;7.30;56.40;;;;;;5056335;28;20386;-54
2022/03/12 06:07:46;;;;;;;16.20;9.02;;;7.40;56.50;;;;;;5071277;28;20120;-56
2022/03/12 06:10:17;;;;;;;15.05;8.93;;;7.30;56.10;;;;;;5062323;28;20033;-50
2022/03/12 06:12:43;;;;;;;17.02;8.20;;;7.40;55.80;;;;;;5067281;28;20111;-53
2022/03/12 06:15:17;;;;;;;13.27;7.75;;;7.40;55.70;;;;;;5074007;28;20079;-52
2022/03/12 06:17:47;;;;;;;19.65;9.30;;;7.40;56.00;;;;;;5073693;28;20068;-51
2022/03/12 06:20:14;;;;;;;13.80;8.23;;;7.40;56.20;;;;;;5073962;28;20464;-52
2022/03/12 06:22:40;;;;;;;13.45;8.15;;;7.30;55.70;;;;;;5072556;28;20507;-50
2022/03/12 06:25:08;;;;;;;14.52;8.23;;;7.30;55.50;;;;;;5073208;28;20033;-51
2022/03/12 06:27:34;;;;;;;18.90;8.95;;;7.40;56.10;;;;;;5073412;28;20108;-50
2022/03/12 06:30:04;;;;;;;14.88;8.35;;;7.30;56.00;;;;;;5074261;28;20090;-51
2022/03/12 06:32:31;;;;;;;13.60;8.38;;;7.30;55.70;;;;;;5073712;28;20044;-51
2022/03/12 06:34:57;;;;;;;15.23;8.50;;;7.50;54.80;;;;;;5067940;28;20048;-53
2022/03/12 06:37:24;;;;;;;15.00;8.70;;;7.40;55.40;;;;;;5064945;28;20587;-53
2022/03/12 06:39:50;;;;;;;16.08;8.63;;;7.50;54.80;;;;;;5063388;28;20119;-50
2022/03/12 06:42:17;;;;;;;15.27;8.80;;;7.50;54.60;;;;;;5072719;28;20115;-51
2022/03/12 06:44:44;;;;;;;17.10;8.35;;;7.50;55.10;;;;;;5054606;28;20049;-50
2022/03/12 06:47:10;;;;;;;15.57;8.85;;;7.40;55.50;;;;;;5060104;28;20067;-53
2022/03/12 06:49:39;;;;;;;16.35;8.68;;;7.50;55.60;;;;;;5071776;28;20029;-52
2022/03/12 06:52:06;;;;;;;14.63;9.13;;;7.50;55.40;;;;;;5055250;28;20158;-52
2022/03/12 06:54:33;;;;;;;14.98;9.10;;;7.50;55.20;;;;;;5073102;28;20493;-52
2022/03/12 06:56:58;;;;;;;15.27;8.75;;;7.50;55.40;;;;;;5072005;28;20067;-51
2022/03/12 06:59:24;;;;;;;16.52;8.75;;;7.50;55.40;;;;;;5071517;28;20448;-51
2022/03/12 07:01:50;;;;;;;15.63;9.73;;;7.50;55.20;;;;;;5066397;28;21932;-51
2022/03/12 07:04:16;;;;;;;16.92;9.30;;;7.50;55.10;;;;;;5054401;28;20450;-52
2022/03/12 07:06:42;;;;;;;15.93;9.20;;;7.40;56.00;;;;;;5072865;28;20040;-50
2022/03/12 07:09:08;;;;;;;15.05;8.98;;;7.40;55.70;;;;;;5072796;28;20089;-54
2022/03/12 07:11:34;;;;;;;14.35;8.23;;;7.40;56.20;;;;;;5055211;28;20055;-51
2022/03/12 07:14:00;;;;;;;13.73;8.82;;;7.40;56.30;;;;;;5073236;28;20064;-50
2022/03/12 07:16:26;;;;;;;14.55;8.52;;;7.50;56.30;;;;;;5071683;28;20075;-50
2022/03/12 07:18:51;;;;;;;14.90;8.80;;;7.60;55.40;;;;;;5066109;28;20116;-50
2022/03/12 07:21:17;;;;;;;19.02;9.25;;;7.60;55.90;;;;;;5073010;28;20036;-52
2022/03/12 07:23:43;;;;;;;17.90;9.73;;;7.70;56.10;;;;;;5072690;28;20489;-50
2022/03/12 07:26:08;;;;;;;14.23;8.20;;;7.70;55.60;;;;;;5072778;28;20139;-51
2022/03/12 07:28:34;;;;;;;15.35;8.85;;;7.80;56.20;;;;;;5072939;28;20033;-50
2022/03/12 07:31:00;;;;;;;18.00;8.65;;;7.90;56.10;;;;;;5072521;28;20048;-50
2022/03/12 07:33:28;;;;;;;17.70;9.13;;;8.00;56.20;;;;;;5072637;28;20047;-50
2022/03/12 07:35:55;;;;;;;16.27;9.00;;;8.00;56.30;;;;;;5072377;28;20047;-50
2022/03/12 07:38:21;;;;;;;15.20;8.98;;;8.20;55.60;;;;;;5071677;28;20386;-50
2022/03/12 07:40:47;;;;;;;13.63;9.10;;;8.30;55.30;;;;;;5071364;28;20036;-51
2022/03/12 07:43:13;;;;;;;16.75;9.23;;;8.30;55.50;;;;;;5070554;28;20050;-50
2022/03/12 07:45:39;;;;;;;15.68;9.43;;;8.30;56.00;;;;;;5070680;28;20116;-53
2022/03/12 07:48:05;;;;;;;19.90;9.30;;;8.40;55.90;;;;;;5067542;28;20033;-50
2022/03/12 07:50:31;;;;;;;16.23;9.68;;;8.50;55.40;;;;;;5066488;28;20374;-52
2022/03/12 07:52:57;;;;;;;17.98;9.13;;;8.60;54.90;;;;;;5069535;28;20127;-54
2022/03/12 07:55:24;;;;;;;16.17;9.20;;;8.60;55.50;;;;;;5066313;28;20111;-53
2022/03/12 07:57:50;;;;;;;17.13;9.27;;;8.70;55.30;;;;;;5061695;28;20543;-55
2022/03/12 08:00:16;;;;;;;18.55;9.68;;;8.70;55.30;;;;;;5063623;28;20068;-56
2022/03/12 08:02:43;;;;;;;19.52;9.70;;;8.80;55.50;;;;;;5061439;28;20120;-53
2022/03/12 08:05:09;;;;;;;16.65;9.48;;;8.80;55.50;;;;;;5062750;28;20043;-55
2022/03/12 08:07:38;;;;;;;16.52;8.88;;;9.00;55.60;;;;;;5063209;28;20028;-53
2022/03/12 08:10:04;;;;;;;19.45;9.10;;;8.90;55.90;;;;;;5060450;28;20047;-53
2022/03/12 08:12:31;;;;;;;17.55;9.95;;;9.00;55.80;;;;;;5060532;28;20075;-51
2022/03/12 08:14:58;;;;;;;18.25;9.80;;;9.10;55.90;;;;;;5060805;28;20488;-50
2022/03/12 08:17:24;;;;;;;18.63;10.45;;;9.20;55.80;;;;;;5055936;28;20033;-55
2022/03/12 08:19:50;;;;;;;16.30;9.77;;;9.30;56.10;;;;;;5062580;28;20044;-54
2022/03/12 08:22:17;;;;;;;18.33;10.00;;;9.40;56.20;;;;;;5060434;28;20040;-53
2022/03/12 08:24:43;;;;;;;16.13;9.13;;;9.50;56.00;;;;;;5064352;28;20090;-56
2022/03/12 08:27:10;;;;;;;14.63;9.60;;;9.50;56.10;;;;;;5059136;28;20074;-54
2022/03/12 08:29:35;;;;;;;14.98;9.13;;;9.60;56.60;;;;;;5067693;28;20041;-53
2022/03/12 08:32:01;;;;;;;15.30;9.85;;;9.60;57.20;;;;;;5064754;28;20047;-53
2022/03/12 08:34:27;;;;;;;18.88;9.85;;;9.70;57.20;;;;;;5062189;28;20082;-53
2022/03/12 08:36:53;;;;;;;16.08;9.30;;;9.80;57.00;;;;;;5052619;28;20503;-53
2022/03/12 08:39:19;;;;;;;15.85;9.68;;;9.90;57.40;;;;;;5059922;28;20124;-50
2022/03/12 08:41:45;;;;;;;15.77;9.60;;;9.90;57.80;;;;;;5044014;28;20505;-53
2022/03/12 08:44:11;;;;;;;16.98;9.82;;;10.00;58.20;;;;;;5060983;28;20037;-50
2022/03/12 08:46:42;;;;;;;19.23;9.82;;;10.00;58.60;;;;;;5067549;28;20229;-50
2022/03/12 08:49:08;;;;;;;16.33;9.85;;;10.10;58.80;;;;;;5064127;28;20051;-54
2022/03/12 08:51:33;;;;;;;17.35;10.27;;;10.20;58.80;;;;;;5059910;28;20036;-53
2022/03/12 08:53:59;;;;;;;15.48;10.15;;;10.20;58.80;;;;;;5061069;28;20037;-50
2022/03/12 08:56:25;;;;;;;18.48;10.35;;;10.30;58.80;;;;;;5061171;28;20041;-56
2022/03/12 08:58:51;;;;;;;15.43;9.32;;;10.40;59.20;;;;;;5051996;28;20040;-54
2022/03/12 09:01:17;;;;;;;18.00;9.70;;;10.40;59.40;;;;;;5047291;28;20451;-52
2022/03/12 09:03:43;;;;;;;19.67;9.77;;;10.50;59.30;;;;;;5061312;28;20045;-52
2022/03/12 09:06:10;;;;;;;16.95;10.23;;;10.60;60.20;;;;;;5054656;28;20039;-50
2022/03/12 09:08:36;;;;;;;18.23;10.25;;;10.70;60.70;;;;;;5075569;28;20047;-50
2022/03/12 09:11:02;;;;;;;17.88;10.15;;;10.80;60.70;;;;;;5054266;28;20036;-50
2022/03/12 09:13:27;;;;;;;16.52;9.68;;;10.90;61.50;;;;;;5071554;28;20036;-51
2022/03/12 09:15:54;;;;;;;14.40;9.48;;;11.10;62.10;;;;;;5069004;28;20509;-50
2022/03/12 09:18:20;;;;;;;16.45;10.13;;;11.10;61.70;;;;;;5069394;28;20072;-51
2022/03/12 09:20:47;;;;;;;14.45;9.75;;;11.20;62.30;;;;;;5068283;28;20048;-53
2022/03/12 09:23:18;;;;;;;14.82;9.00;;;11.30;62.20;;;;;;5068857;28;20396;-50
2022/03/12 09:25:45;;;;;;;15.60;9.32;;;11.40;62.70;;;;;;5065427;28;20086;-53
2022/03/12 09:28:11;;;;;;;13.32;9.18;;;11.50;63.10;;;;;;5063971;28;20037;-50
2022/03/12 09:30:37;;;;;;;14.98;9.25;;;11.50;63.40;;;;;;5062183;28;20114;-50
2022/03/12 09:33:04;;;;;;;13.48;9.10;;;11.60;64.00;;;;;;5075114;28;20476;-50
2022/03/12 09:35:29;;;;;;;15.65;9.25;;;11.60;65.20;;;;;;5038368;28;20071;-50
2022/03/12 09:37:55;;;;;;;13.10;8.63;;;11.70;66.20;;;;;;5073582;28;20074;-54
2022/03/12 09:40:22;;;;;;;12.68;8.40;;;11.80;68.20;;;;;;5074859;28;20520;-50
2022/03/12 09:42:48;;;;;;;11.63;7.53;;;11.90;68.50;;;;;;5066624;28;20047;-50
2022/03/12 09:45:14;;;;;;;11.65;8.43;;;12.00;68.70;;;;;;5072261;28;20036;-51
2022/03/12 09:47:40;;;;;;;13.52;7.93;;;12.00;68.90;;;;;;5072978;28;20536;-51
2022/03/12 09:50:07;;;;;;;12.07;8.65;;;12.10;69.00;;;;;;5072652;28;20086;-50
2022/03/12 09:52:32;;;;;;;13.20;8.90;;;12.10;69.20;;;;;;5061655;28;20101;-51
2022/03/12 09:54:58;;;;;;;14.13;9.13;;;12.10;69.20;;;;;;5073481;28;20463;-52
2022/03/12 09:57:24;;;;;;;12.73;8.43;;;12.10;69.00;;;;;;5071590;28;20040;-51
2022/03/12 09:59:50;;;;;;;13.95;8.60;;;12.20;69.30;;;;;;5074109;28;20044;-53
2022/03/12 10:02:15;;;;;;;15.15;8.32;;;12.10;69.60;;;;;;5055177;28;20405;-50
2022/03/12 10:04:43;;;;;;;13.32;7.97;;;12.20;70.40;;;;;;5039358;28;20044;-50
2022/03/12 10:07:09;;;;;;;12.85;8.50;;;12.20;70.10;;;;;;5071151;28;20146;-50
2022/03/12 10:09:35;;;;;;;12.65;8.70;;;12.30;69.50;;;;;;5071544;28;20051;-50
2022/03/12 10:12:01;;;;;;;12.63;8.50;;;12.30;70.00;;;;;;5068164;28;20036;-50
2022/03/12 10:14:28;;;;;;;13.90;8.38;;;12.30;70.70;;;;;;5073428;28;20480;-51
2022/03/12 10:16:53;;;;;;;14.07;8.20;;;12.40;70.20;;;;;;5071883;28;20055;-51
2022/03/12 10:19:20;;;;;;;13.50;8.30;;;12.50;70.20;;;;;;5072809;28;20044;-52
2022/03/12 10:21:46;;;;;;;14.93;8.50;;;12.50;69.60;;;;;;5068370;28;20041;-50
2022/03/12 10:24:13;;;;;;;12.93;8.18;;;12.50;70.00;;;;;;5069251;28;20041;-50
2022/03/12 10:26:39;;;;;;;15.57;7.45;;;12.60;70.40;;;;;;5071544;28;20032;-53
2022/03/12 10:29:07;;;;;;;13.68;7.55;;;12.70;70.50;;;;;;5052913;28;20512;-51
2022/03/12 10:31:34;;;;;;;12.77;8.07;;;12.80;69.90;;;;;;5062918;28;20033;-52
2022/03/12 10:34:23;;;;;;;12.05;7.63;;;12.80;69.70;;;;;;5065091;28;20490;-53
2022/03/12 10:36:57;;;;;;;12.65;7.82;;;12.90;69.90;;;;;;5073238;28;20040;-52
2022/03/12 10:39:40;;;;;;;13.70;8.15;;;12.80;69.60;;;;;;5073596;28;20439;-54
2022/03/12 10:42:07;;;;;;;12.80;8.18;;;12.90;70.00;;;;;;5066566;28;20047;-52
2022/03/12 10:44:39;;;;;;;13.25;8.20;;;12.90;70.40;;;;;;5073498;28;20527;-55
2022/03/12 10:47:22;;;;;;;11.07;7.30;;;13.00;70.80;;;;;;5070089;28;20485;-52
2022/03/12 10:49:57;;;;;;;11.00;7.03;;;13.10;70.20;;;;;;5053355;28;20040;-52
2022/03/12 10:52:30;;;;;;;10.30;6.55;;;13.20;69.70;;;;;;5067979;28;20401;-51
2022/03/12 10:54:56;;;;;;;12.80;6.95;;;13.20;69.10;;;;;;5063418;28;20032;-54
2022/03/12 10:57:22;;;;;;;12.05;7.38;;;13.10;69.70;;;;;;5071625;28;20070;-54
2022/03/12 10:59:54;;;;;;;13.60;7.82;;;13.10;70.20;;;;;;5071828;28;20511;-54
2022/03/12 11:02:19;;;;;;;12.55;8.63;;;13.10;69.80;;;;;;5069597;28;20116;-51
2022/03/12 11:04:45;;;;;;;12.60;7.85;;;13.10;70.90;;;;;;5070064;28;20111;-53
2022/03/12 11:07:26;;;;;;;11.98;7.38;;;13.20;69.60;;;;;;5054762;28;20039;-51
2022/03/12 11:09:54;;;;;;;11.68;7.28;;;13.20;69.50;;;;;;5072176;28;20048;-51
2022/03/12 11:12:30;;;;;;;11.80;7.50;;;13.20;69.10;;;;;;5067074;28;20048;-52
2022/03/12 11:15:15;;;;;;;12.68;6.97;;;13.30;68.80;;;;;;5065663;28;20103;-51
2022/03/12 11:17:50;;;;;;;11.20;7.50;;;13.20;69.40;;;;;;5067954;28;20043;-51
2022/03/12 11:20:25;;;;;;;12.57;7.68;;;13.20;69.60;;;;;;5056684;28;20033;-53
2022/03/12 11:22:52;;;;;;;13.35;7.82;;;13.30;69.20;;;;;;5052655;28;20044;-52
2022/03/12 11:25:22;;;;;;;12.23;7.57;;;13.30;69.70;;;;;;5067674;28;20067;-54
2022/03/12 11:27:51;;;;;;;12.27;7.00;;;13.30;69.60;;;;;;5060822;28;20032;-53
2022/03/12 11:30:22;;;;;;;16.35;7.70;;;13.30;69.60;;;;;;5042321;28;20735;-51
2022/03/12 11:33:04;;;;;;;12.38;7.70;;;13.40;68.90;;;;;;5060872;28;20047;-54
2022/03/12 11:35:38;;;;;;;10.20;7.40;;;13.40;69.10;;;;;;5060532;28;20063;-54
2022/03/12 11:38:15;;;;;;;10.68;6.93;;;13.50;69.00;;;;;;5054563;28;20037;-51
2022/03/12 11:41:08;;;;;;;10.98;7.20;;;13.50;68.30;;;;;;5052023;28;20056;-54
2022/03/12 11:43:39;;;;;;;12.05;7.40;;;13.60;68.50;;;;;;5056071;28;20041;-54
2022/03/12 11:46:07;;;;;;;13.60;7.93;;;13.70;68.10;;;;;;5059481;28;20460;-54
2022/03/12 11:48:36;;;;;;;13.45;7.40;;;13.70;68.10;;;;;;5042950;28;20040;-54
2022/03/12 11:51:07;;;;;;;12.00;6.93;;;13.70;67.20;;;;;;5061774;28;20086;-53
2022/03/12 11:53:39;;;;;;;11.18;6.72;;;13.70;67.20;;;;;;5062403;28;20040;-53
2022/03/12 11:56:07;;;;;;;12.93;7.40;;;13.70;66.70;;;;;;5072249;28;20044;-53
2022/03/12 11:58:33;;;;;;;11.27;7.35;;;13.60;66.40;;;;;;5068318;28;20040;-51
2022/03/12 12:00:58;;;;;;;10.30;6.80;;;13.60;67.00;;;;;;5058799;28;20121;-54
2022/03/12 12:03:24;;;;;;;11.77;7.32;;;13.60;67.30;;;;;;5063415;28;20051;-52
2022/03/12 12:05:50;;;;;;;10.65;7.20;;;13.60;67.20;;;;;;5069058;28;20432;-52
2022/03/12 12:08:16;;;;;;;11.95;6.22;;;13.60;66.70;;;;;;5065265;28;20062;-52
2022/03/12 12:10:43;;;;;;;13.70;6.78;;;13.60;67.40;;;;;;5063714;28;20036;-55
2022/03/12 12:13:12;;;;;;;9.10;6.32;;;13.70;67.50;;;;;;5071404;28;20039;-51
2022/03/12 12:15:39;;;;;;;10.70;6.65;;;13.70;67.20;;;;;;5071502;28;20051;-54
2022/03/12 12:18:11;;;;;;;9.80;6.15;;;13.70;66.70;;;;;;5053187;28;20469;-52
2022/03/12 12:20:37;;;;;;;;;;;13.90;67.10;;;;;;5070328;28;20045;-51
2022/03/12 12:23:03;;;;;;;13.63;6.70;;;13.90;65.20;;;;;;5069310;28;19927;-51
2022/03/12 12:25:35;;;;;;;10.65;6.40;;;13.80;66.20;;;;;;5053345;28;20032;-51
2022/03/12 12:28:12;;;;;;;10.82;6.82;;;13.80;67.00;;;;;;5069446;28;20036;-53
2022/03/12 12:30:38;;;;;;;12.05;6.82;;;13.80;67.00;;;;;;5071250;28;20041;-51
2022/03/12 12:33:25;;;;;;;10.43;6.57;;;13.80;66.30;;;;;;5071703;28;20412;-51
2022/03/12 12:36:06;;;;;;;12.10;5.85;;;13.80;66.90;;;;;;5071285;28;20040;-54
2022/03/12 12:38:31;;;;;;;9.43;5.80;;;13.80;65.80;;;;;;5061054;28;20028;-50
2022/03/12 12:40:59;;;;;;;9.73;6.28;;;13.80;65.90;;;;;;5071591;28;20523;-53
2022/03/12 12:43:33;;;;;;;10.75;5.97;;;13.90;65.30;;;;;;5053452;28;20036;-54
2022/03/12 12:46:12;;;;;;;10.00;5.32;;;13.90;66.20;;;;;;5071239;28;20044;-56
2022/03/12 12:48:41;;;;;;;9.75;5.60;;;14.00;66.00;;;;;;5071449;28;20040;-51
2022/03/12 12:51:15;;;;;;;10.93;5.38;;;14.10;65.90;;;;;;5071009;28;20098;-54